Time;durP1;ratioP1;P1;durP2;ratioP2;P2;SDS_P1;SDS_P2;PMS_P1;PMS_P2;Temp;Humidity;BMP_temperature;BMP_pressure;BME280_temperature;BME280_humidity;BME280_pressure;Samples;Min_cycle;Max_cycle;Signal;HPM_P1;HPM_P2
2023/01/25 00:53:09;;;;;;;;;;;24.80;77.40;;;;;;6275604;22;20307;-72
2023/01/25 00:55:36;;;;;;;;;;;25.00;76.70;;;;;;6275170;22;19911;-72
2023/01/25 00:58:02;;;;;;;;;;;25.10;76.70;;;;;;6275188;22;19916;-73
2023/01/25 01:00:29;;;;;;;;;;;25.20;75.90;;;;;;6276640;22;19939;-74
2023/01/25 01:02:56;;;;;;;;;;;25.30;72.90;;;;;;6275331;22;19943;-73
2023/01/25 01:05:22;;;;;;;;;;;25.30;74.20;;;;;;6275035;22;20238;-73
2023/01/25 01:07:49;;;;;;;;;;;25.30;75.90;;;;;;6274829;22;19907;-72
2023/01/25 01:10:16;;;;;;;;;;;25.30;76.20;;;;;;6274536;22;19907;-72
2023/01/25 01:12:42;;;;;;;;;;;25.20;76.50;;;;;;6275568;22;19904;-73
2023/01/25 01:15:09;;;;;;;;;;;25.10;76.30;;;;;;6275860;22;19904;-73
2023/01/25 01:17:36;;;;;;;;;;;25.10;77.90;;;;;;6276114;22;19907;-73
2023/01/25 01:20:02;;;;;;;;;;;25.00;78.30;;;;;;6274952;22;19903;-73
2023/01/25 01:22:29;;;;;;;;;;;25.00;77.90;;;;;;6276692;22;20226;-73
2023/01/25 01:24:56;;;;;;;;;;;24.90;78.40;;;;;;6275587;22;20348;-73
2023/01/25 01:27:22;;;;;;;;;;;25.00;79.00;;;;;;6276380;22;19954;-73
2023/01/25 01:29:49;;;;;;;;;;;25.00;79.30;;;;;;6275796;22;20264;-72
2023/01/25 01:32:16;;;;;;;;;;;25.10;78.80;;;;;;6274619;22;19926;-71
2023/01/25 01:34:43;;;;;;;;;;;25.20;78.00;;;;;;6276136;22;19958;-71
2023/01/25 01:37:10;;;;;;;;;;;25.20;78.50;;;;;;6274694;22;19911;-71
2023/01/25 01:39:36;;;;;;;;;;;25.30;79.40;;;;;;6247836;22;19911;-72
2023/01/25 01:42:03;;;;;;;;;;;25.40;79.50;;;;;;6274645;22;19911;-72
2023/01/25 01:44:49;;;;;;;;;;;25.40;78.40;;;;;;6275086;22;19965;-73
2023/01/25 01:47:24;;;;;;;;;;;25.40;79.50;;;;;;6275471;22;19914;-74
2023/01/25 01:49:52;;;;;;;;;;;25.30;78.00;;;;;;6276178;22;20345;-74
2023/01/25 06:36:40;;;;;;;;;;;25.70;75.30;;;;;;6262991;22;20003;-71
2023/01/25 06:39:08;;;;;;;;;;;25.70;76.00;;;;;;6236796;23;20014;-70
2023/01/25 06:41:34;;;;;;;;;;;25.70;76.30;;;;;;6241062;23;20295;-70
2023/01/25 06:44:01;;;;;;;;;;;25.70;76.90;;;;;;6240087;22;19911;-71
2023/01/25 06:46:28;;;;;;;;;;;25.70;77.20;;;;;;6239336;23;20331;-71
2023/01/25 06:48:54;;;;;;;;;;;25.70;77.50;;;;;;6213702;23;20291;-69
2023/01/25 06:51:21;;;;;;;;;;;25.70;77.70;;;;;;6240804;23;20330;-71
2023/01/25 06:53:47;;;;;;;;;;;25.60;77.70;;;;;;6241105;22;19912;-70
2023/01/25 06:56:16;;;;;;;;;;;25.60;77.80;;;;;;6239382;23;20002;-71
2023/01/25 06:58:43;;;;;;;;;;;25.60;77.80;;;;;;6239790;23;19911;-72
2023/01/25 07:01:14;;;;;;;;;;;25.50;78.10;;;;;;6240010;23;19908;-72
2023/01/25 07:03:41;;;;;;;;;;;25.50;78.10;;;;;;6241401;22;19907;-72
2023/01/25 07:06:08;;;;;;;;;;;25.50;78.10;;;;;;6214287;23;19903;-72
2023/01/25 07:08:35;;;;;;;;;;;25.40;78.20;;;;;;6241410;23;20327;-72
2023/01/25 07:11:02;;;;;;;;;;;25.40;77.70;;;;;;6241266;23;19908;-73
2023/01/25 07:13:29;;;;;;;;;;;25.40;77.40;;;;;;6241165;22;19954;-72
2023/01/25 07:15:56;;;;;;;;;;;25.40;77.40;;;;;;6240948;23;19907;-72
2023/01/25 07:18:23;;;;;;;;;;;25.30;78.00;;;;;;6241393;23;19967;-72
2023/01/25 07:20:50;;;;;;;;;;;25.30;77.90;;;;;;6214259;23;19911;-73
2023/01/25 07:23:17;;;;;;;;;;;25.30;77.80;;;;;;6241744;22;20196;-72
2023/01/25 07:25:46;;;;;;;;;;;25.30;77.90;;;;;;6241739;23;19914;-73
2023/01/25 07:28:13;;;;;;;;;;;25.20;77.90;;;;;;6214258;23;20272;-72
2023/01/25 07:30:40;;;;;;;;;;;25.20;77.60;;;;;;6238971;23;19907;-72
2023/01/25 07:33:07;;;;;;;;;;;25.20;77.30;;;;;;6213593;23;19907;-72
2023/01/25 07:35:34;;;;;;;;;;;25.20;77.00;;;;;;6214558;23;20367;-72
